sensor_id;sensor_type;location;lat;lon;timestamp;P1;durP1;ratioP1;P2;durP2;ratioP2
82646;SDS011;72325;41.910;22.404;2023-09-19T00:02:16;13.38;;;10.40;;
82646;SDS011;72325;41.910;22.404;2023-09-19T00:04:42;14.88;;;11.35;;
82646;SDS011;72325;41.910;22.404;2023-09-19T00:07:08;14.07;;;10.35;;
82646;SDS011;72325;41.910;22.404;2023-09-19T00:09:35;13.00;;;9.88;;
82646;SDS011;72325;41.910;22.404;2023-09-19T00:14:30;15.68;;;10.57;;
82646;SDS011;72325;41.910;22.404;2023-09-19T00:16:59;13.27;;;9.90;;
82646;SDS011;72325;41.910;22.404;2023-09-19T00:19:26;14.88;;;10.15;;
82646;SDS011;72325;41.910;22.404;2023-09-19T00:21:52;14.20;;;10.10;;
82646;SDS011;72325;41.910;22.404;2023-09-19T00:24:18;14.02;;;9.90;;
82646;SDS011;72325;41.910;22.404;2023-09-19T00:26:44;11.57;;;9.50;;
82646;SDS011;72325;41.910;22.404;2023-09-19T00:29:11;12.30;;;10.18;;
82646;SDS011;72325;41.910;22.404;2023-09-19T00:31:43;14.55;;;10.02;;
82646;SDS011;72325;41.910;22.404;2023-09-19T00:34:09;15.90;;;10.57;;
82646;SDS011;72325;41.910;22.404;2023-09-19T00:36:36;14.35;;;9.38;;
82646;SDS011;72325;41.910;22.404;2023-09-19T00:39:04;13.00;;;9.18;;
82646;SDS011;72325;41.910;22.404;2023-09-19T00:41:31;15.57;;;9.93;;
82646;SDS011;72325;41.910;22.404;2023-09-19T00:43:57;15.20;;;9.98;;
82646;SDS011;72325;41.910;22.404;2023-09-19T00:46:25;13.88;;;10.30;;
82646;SDS011;72325;41.910;22.404;2023-09-19T00:48:51;11.70;;;9.63;;
82646;SDS011;72325;41.910;22.404;2023-09-19T00:51:17;11.25;;;9.43;;
82646;SDS011;72325;41.910;22.404;2023-09-19T00:53:46;11.05;;;9.38;;
82646;SDS011;72325;41.910;22.404;2023-09-19T00:56:12;11.82;;;9.40;;
82646;SDS011;72325;41.910;22.404;2023-09-19T00:58:40;11.65;;;9.90;;
82646;SDS011;72325;41.910;22.404;2023-09-19T01:01:06;12.75;;;9.50;;
82646;SDS011;72325;41.910;22.404;2023-09-19T01:03:33;13.18;;;10.18;;
82646;SDS011;72325;41.910;22.404;2023-09-19T01:05:59;13.43;;;10.05;;
82646;SDS011;72325;41.910;22.404;2023-09-19T01:08:26;12.80;;;10.60;;
82646;SDS011;72325;41.910;22.404;2023-09-19T01:11:57;14.45;;;10.52;;
82646;SDS011;72325;41.910;22.404;2023-09-19T01:16:42;16.77;;;10.80;;
82646;SDS011;72325;41.910;22.404;2023-09-19T01:24:20;13.82;;;9.68;;
82646;SDS011;72325;41.910;22.404;2023-09-19T01:29:35;13.75;;;10.50;;
82646;SDS011;72325;41.910;22.404;2023-09-19T01:32:04;13.68;;;10.45;;
82646;SDS011;72325;41.910;22.404;2023-09-19T01:34:43;12.15;;;9.73;;
82646;SDS011;72325;41.910;22.404;2023-09-19T01:37:12;12.95;;;9.48;;
82646;SDS011;72325;41.910;22.404;2023-09-19T01:39:39;11.80;;;9.63;;
82646;SDS011;72325;41.910;22.404;2023-09-19T01:42:12;12.57;;;10.25;;
82646;SDS011;72325;41.910;22.404;2023-09-19T01:44:48;15.13;;;10.43;;
82646;SDS011;72325;41.910;22.404;2023-09-19T01:47:19;13.75;;;10.20;;
82646;SDS011;72325;41.910;22.404;2023-09-19T01:49:55;13.80;;;9.82;;
82646;SDS011;72325;41.910;22.404;2023-09-19T01:52:25;13.07;;;9.68;;
82646;SDS011;72325;41.910;22.404;2023-09-19T01:54:55;14.93;;;9.45;;
82646;SDS011;72325;41.910;22.404;2023-09-19T01:57:27;12.65;;;9.48;;
82646;SDS011;72325;41.910;22.404;2023-09-19T01:59:57;11.52;;;9.45;;
82646;SDS011;72325;41.910;22.404;2023-09-19T02:02:31;13.20;;;9.98;;
82646;SDS011;72325;41.910;22.404;2023-09-19T02:04:57;12.27;;;9.90;;
82646;SDS011;72325;41.910;22.404;2023-09-19T02:07:24;13.98;;;10.43;;
82646;SDS011;72325;41.910;22.404;2023-09-19T02:09:50;13.18;;;10.05;;
82646;SDS011;72325;41.910;22.404;2023-09-19T02:12:16;12.35;;;10.48;;
82646;SDS011;72325;41.910;22.404;2023-09-19T02:14:42;15.65;;;10.48;;
82646;SDS011;72325;41.910;22.404;2023-09-19T02:17:08;14.63;;;11.05;;
82646;SDS011;72325;41.910;22.404;2023-09-19T02:19:36;13.38;;;10.48;;
82646;SDS011;72325;41.910;22.404;2023-09-19T02:22:04;11.35;;;9.85;;
82646;SDS011;72325;41.910;22.404;2023-09-19T02:24:35;14.40;;;10.45;;
82646;SDS011;72325;41.910;22.404;2023-09-19T02:27:01;12.25;;;10.43;;
82646;SDS011;72325;41.910;22.404;2023-09-19T02:29:29;13.50;;;10.63;;
82646;SDS011;72325;41.910;22.404;2023-09-19T02:31:55;13.55;;;10.30;;
82646;SDS011;72325;41.910;22.404;2023-09-19T02:34:22;14.55;;;11.10;;
82646;SDS011;72325;41.910;22.404;2023-09-19T02:36:48;14.38;;;10.48;;
82646;SDS011;72325;41.910;22.404;2023-09-19T02:39:14;16.75;;;11.27;;
82646;SDS011;72325;41.910;22.404;2023-09-19T02:41:40;14.30;;;10.15;;
82646;SDS011;72325;41.910;22.404;2023-09-19T02:44:07;14.65;;;10.73;;
82646;SDS011;72325;41.910;22.404;2023-09-19T02:46:34;13.52;;;10.75;;
82646;SDS011;72325;41.910;22.404;2023-09-19T02:49:01;16.15;;;11.20;;
82646;SDS011;72325;41.910;22.404;2023-09-19T02:51:30;16.30;;;11.25;;
82646;SDS011;72325;41.910;22.404;2023-09-19T02:53:57;15.50;;;10.98;;
82646;SDS011;72325;41.910;22.404;2023-09-19T02:56:23;15.38;;;11.45;;
82646;SDS011;72325;41.910;22.404;2023-09-19T02:58:50;16.60;;;11.45;;
82646;SDS011;72325;41.910;22.404;2023-09-19T03:01:16;13.90;;;11.15;;
82646;SDS011;72325;41.910;22.404;2023-09-19T03:03:43;14.18;;;11.52;;
82646;SDS011;72325;41.910;22.404;2023-09-19T03:06:11;14.13;;;10.63;;
82646;SDS011;72325;41.910;22.404;2023-09-19T03:08:38;15.27;;;11.85;;
82646;SDS011;72325;41.910;22.404;2023-09-19T03:11:10;14.35;;;11.63;;
82646;SDS011;72325;41.910;22.404;2023-09-19T03:13:38;18.52;;;11.02;;
82646;SDS011;72325;41.910;22.404;2023-09-19T03:16:05;13.10;;;11.13;;
82646;SDS011;72325;41.910;22.404;2023-09-19T03:18:34;14.23;;;11.73;;
82646;SDS011;72325;41.910;22.404;2023-09-19T03:21:00;13.38;;;11.10;;
82646;SDS011;72325;41.910;22.404;2023-09-19T03:23:26;15.05;;;10.30;;
82646;SDS011;72325;41.910;22.404;2023-09-19T03:25:56;13.63;;;10.68;;
82646;SDS011;72325;41.910;22.404;2023-09-19T03:28:24;15.10;;;10.88;;
82646;SDS011;72325;41.910;22.404;2023-09-19T03:33:25;18.17;;;11.82;;
82646;SDS011;72325;41.910;22.404;2023-09-19T03:35:52;15.68;;;11.35;;
82646;SDS011;72325;41.910;22.404;2023-09-19T03:38:18;16.65;;;10.95;;
82646;SDS011;72325;41.910;22.404;2023-09-19T03:40:45;15.73;;;10.98;;
82646;SDS011;72325;41.910;22.404;2023-09-19T03:43:11;17.10;;;11.80;;
82646;SDS011;72325;41.910;22.404;2023-09-19T03:45:37;15.25;;;11.55;;
82646;SDS011;72325;41.910;22.404;2023-09-19T03:48:08;15.07;;;10.95;;
82646;SDS011;72325;41.910;22.404;2023-09-19T03:50:34;15.88;;;11.10;;
82646;SDS011;72325;41.910;22.404;2023-09-19T03:53:00;15.48;;;11.38;;
82646;SDS011;72325;41.910;22.404;2023-09-19T03:55:27;15.93;;;11.38;;
82646;SDS011;72325;41.910;22.404;2023-09-19T03:57:54;15.45;;;11.48;;
82646;SDS011;72325;41.910;22.404;2023-09-19T04:00:20;17.20;;;11.85;;
82646;SDS011;72325;41.910;22.404;2023-09-19T04:02:48;15.50;;;10.88;;
82646;SDS011;72325;41.910;22.404;2023-09-19T04:05:15;16.02;;;11.18;;
82646;SDS011;72325;41.910;22.404;2023-09-19T04:07:41;12.98;;;10.43;;
82646;SDS011;72325;41.910;22.404;2023-09-19T04:10:07;14.27;;;10.32;;
82646;SDS011;72325;41.910;22.404;2023-09-19T04:12:35;14.77;;;10.68;;
82646;SDS011;72325;41.910;22.404;2023-09-19T04:15:01;13.10;;;10.45;;
82646;SDS011;72325;41.910;22.404;2023-09-19T04:17:27;16.75;;;10.98;;
82646;SDS011;72325;41.910;22.404;2023-09-19T04:19:53;14.65;;;10.30;;
82646;SDS011;72325;41.910;22.404;2023-09-19T04:22:19;14.18;;;10.32;;
82646;SDS011;72325;41.910;22.404;2023-09-19T04:24:45;19.52;;;10.90;;
82646;SDS011;72325;41.910;22.404;2023-09-19T04:27:11;14.45;;;10.40;;
82646;SDS011;72325;41.910;22.404;2023-09-19T04:29:39;13.07;;;10.27;;
82646;SDS011;72325;41.910;22.404;2023-09-19T04:32:06;12.93;;;10.50;;
82646;SDS011;72325;41.910;22.404;2023-09-19T04:34:33;15.18;;;11.13;;
82646;SDS011;72325;41.910;22.404;2023-09-19T04:36:59;15.52;;;11.25;;
82646;SDS011;72325;41.910;22.404;2023-09-19T04:39:26;13.98;;;10.48;;
82646;SDS011;72325;41.910;22.404;2023-09-19T04:41:52;15.02;;;11.32;;
82646;SDS011;72325;41.910;22.404;2023-09-19T04:44:18;16.15;;;11.13;;
82646;SDS011;72325;41.910;22.404;2023-09-19T04:46:44;17.45;;;11.27;;
82646;SDS011;72325;41.910;22.404;2023-09-19T04:49:14;15.63;;;10.98;;
82646;SDS011;72325;41.910;22.404;2023-09-19T04:51:40;15.82;;;11.50;;
82646;SDS011;72325;41.910;22.404;2023-09-19T04:54:07;15.25;;;11.15;;
82646;SDS011;72325;41.910;22.404;2023-09-19T04:56:34;13.68;;;11.05;;
82646;SDS011;72325;41.910;22.404;2023-09-19T04:59:00;14.40;;;10.68;;
82646;SDS011;72325;41.910;22.404;2023-09-19T05:01:26;13.55;;;10.18;;
82646;SDS011;72325;41.910;22.404;2023-09-19T05:03:52;12.88;;;10.05;;
82646;SDS011;72325;41.910;22.404;2023-09-19T05:06:18;14.23;;;10.80;;
82646;SDS011;72325;41.910;22.404;2023-09-19T05:08:50;19.13;;;10.68;;
82646;SDS011;72325;41.910;22.404;2023-09-19T05:11:21;14.20;;;10.13;;
82646;SDS011;72325;41.910;22.404;2023-09-19T05:13:48;14.98;;;10.25;;
82646;SDS011;72325;41.910;22.404;2023-09-19T05:16:18;14.30;;;10.32;;
82646;SDS011;72325;41.910;22.404;2023-09-19T05:18:44;12.98;;;10.40;;
82646;SDS011;72325;41.910;22.404;2023-09-19T05:21:10;14.40;;;10.10;;
82646;SDS011;72325;41.910;22.404;2023-09-19T05:23:37;13.82;;;10.90;;
82646;SDS011;72325;41.910;22.404;2023-09-19T05:26:03;12.27;;;10.80;;
82646;SDS011;72325;41.910;22.404;2023-09-19T05:28:30;15.07;;;10.30;;
82646;SDS011;72325;41.910;22.404;2023-09-19T05:30:59;15.18;;;11.30;;
82646;SDS011;72325;41.910;22.404;2023-09-19T05:33:26;17.52;;;12.73;;
82646;SDS011;72325;41.910;22.404;2023-09-19T05:35:52;14.10;;;10.43;;
82646;SDS011;72325;41.910;22.404;2023-09-19T05:38:19;13.95;;;9.98;;
82646;SDS011;72325;41.910;22.404;2023-09-19T05:40:45;14.93;;;10.73;;
82646;SDS011;72325;41.910;22.404;2023-09-19T05:43:12;13.43;;;10.38;;
82646;SDS011;72325;41.910;22.404;2023-09-19T05:45:39;26.83;;;20.52;;
82646;SDS011;72325;41.910;22.404;2023-09-19T05:48:09;13.80;;;9.98;;
82646;SDS011;72325;41.910;22.404;2023-09-19T05:50:36;16.50;;;11.00;;
82646;SDS011;72325;41.910;22.404;2023-09-19T05:53:02;15.65;;;10.68;;
82646;SDS011;72325;41.910;22.404;2023-09-19T05:55:29;12.60;;;10.48;;
82646;SDS011;72325;41.910;22.404;2023-09-19T05:57:56;12.73;;;9.98;;
82646;SDS011;72325;41.910;22.404;2023-09-19T06:00:22;14.13;;;11.05;;
82646;SDS011;72325;41.910;22.404;2023-09-19T06:02:52;13.45;;;10.32;;
82646;SDS011;72325;41.910;22.404;2023-09-19T06:05:18;12.75;;;10.68;;
82646;SDS011;72325;41.910;22.404;2023-09-19T06:07:44;15.85;;;11.82;;
82646;SDS011;72325;41.910;22.404;2023-09-19T06:10:12;22.00;;;16.70;;
82646;SDS011;72325;41.910;22.404;2023-09-19T06:12:39;14.35;;;12.05;;
82646;SDS011;72325;41.910;22.404;2023-09-19T06:15:06;14.25;;;10.52;;
82646;SDS011;72325;41.910;22.404;2023-09-19T06:17:40;13.77;;;9.85;;
82646;SDS011;72325;41.910;22.404;2023-09-19T06:20:06;15.55;;;10.80;;
82646;SDS011;72325;41.910;22.404;2023-09-19T06:22:40;13.73;;;10.77;;
82646;SDS011;72325;41.910;22.404;2023-09-19T06:25:07;15.85;;;12.05;;
82646;SDS011;72325;41.910;22.404;2023-09-19T06:27:36;15.05;;;12.43;;
82646;SDS011;72325;41.910;22.404;2023-09-19T06:30:02;13.98;;;11.00;;
82646;SDS011;72325;41.910;22.404;2023-09-19T06:32:28;12.10;;;10.52;;
82646;SDS011;72325;41.910;22.404;2023-09-19T06:34:54;12.88;;;10.85;;
82646;SDS011;72325;41.910;22.404;2023-09-19T06:37:23;13.38;;;10.60;;
82646;SDS011;72325;41.910;22.404;2023-09-19T06:39:53;14.32;;;10.18;;
82646;SDS011;72325;41.910;22.404;2023-09-19T06:42:19;13.85;;;10.00;;
82646;SDS011;72325;41.910;22.404;2023-09-19T06:44:45;11.50;;;10.18;;
82646;SDS011;72325;41.910;22.404;2023-09-19T06:47:11;13.85;;;10.88;;
82646;SDS011;72325;41.910;22.404;2023-09-19T06:49:38;11.82;;;10.63;;
82646;SDS011;72325;41.910;22.404;2023-09-19T06:52:05;18.20;;;11.50;;
82646;SDS011;72325;41.910;22.404;2023-09-19T06:54:31;14.32;;;10.43;;
82646;SDS011;72325;41.910;22.404;2023-09-19T06:56:58;12.63;;;10.52;;
82646;SDS011;72325;41.910;22.404;2023-09-19T06:59:25;12.88;;;10.52;;
82646;SDS011;72325;41.910;22.404;2023-09-19T07:01:51;12.27;;;10.63;;
82646;SDS011;72325;41.910;22.404;2023-09-19T07:04:17;13.07;;;10.65;;
82646;SDS011;72325;41.910;22.404;2023-09-19T07:06:50;16.65;;;10.75;;
82646;SDS011;72325;41.910;22.404;2023-09-19T07:09:16;13.43;;;10.35;;
82646;SDS011;72325;41.910;22.404;2023-09-19T07:11:44;11.48;;;10.15;;
82646;SDS011;72325;41.910;22.404;2023-09-19T07:14:13;12.48;;;10.10;;
82646;SDS011;72325;41.910;22.404;2023-09-19T07:16:39;13.10;;;10.13;;
82646;SDS011;72325;41.910;22.404;2023-09-19T07:19:07;10.35;;;9.15;;
82646;SDS011;72325;41.910;22.404;2023-09-19T07:21:33;14.68;;;9.95;;
82646;SDS011;72325;41.910;22.404;2023-09-19T07:24:00;13.05;;;10.18;;
82646;SDS011;72325;41.910;22.404;2023-09-19T07:26:28;14.50;;;10.68;;
82646;SDS011;72325;41.910;22.404;2023-09-19T07:28:56;12.93;;;10.65;;
82646;SDS011;72325;41.910;22.404;2023-09-19T07:31:22;11.15;;;9.98;;
82646;SDS011;72325;41.910;22.404;2023-09-19T07:33:50;11.52;;;9.68;;
82646;SDS011;72325;41.910;22.404;2023-09-19T07:36:16;11.85;;;9.48;;
82646;SDS011;72325;41.910;22.404;2023-09-19T07:38:42;11.60;;;10.30;;
82646;SDS011;72325;41.910;22.404;2023-09-19T07:41:09;16.55;;;12.80;;
82646;SDS011;72325;41.910;22.404;2023-09-19T07:43:35;12.30;;;10.23;;
82646;SDS011;72325;41.910;22.404;2023-09-19T07:46:07;15.32;;;10.50;;
82646;SDS011;72325;41.910;22.404;2023-09-19T07:48:36;14.38;;;11.68;;
82646;SDS011;72325;41.910;22.404;2023-09-19T07:51:06;13.52;;;9.57;;
82646;SDS011;72325;41.910;22.404;2023-09-19T07:53:33;13.52;;;9.73;;
82646;SDS011;72325;41.910;22.404;2023-09-19T07:56:03;12.00;;;9.15;;
82646;SDS011;72325;41.910;22.404;2023-09-19T07:58:29;10.13;;;9.02;;
82646;SDS011;72325;41.910;22.404;2023-09-19T08:00:56;10.98;;;9.00;;
82646;SDS011;72325;41.910;22.404;2023-09-19T08:03:22;10.52;;;9.35;;
82646;SDS011;72325;41.910;22.404;2023-09-19T08:05:48;14.05;;;9.68;;
82646;SDS011;72325;41.910;22.404;2023-09-19T08:08:14;13.35;;;9.52;;
82646;SDS011;72325;41.910;22.404;2023-09-19T08:10:40;11.48;;;9.43;;
82646;SDS011;72325;41.910;22.404;2023-09-19T08:13:08;10.48;;;9.23;;
82646;SDS011;72325;41.910;22.404;2023-09-19T08:15:42;13.02;;;9.20;;
82646;SDS011;72325;41.910;22.404;2023-09-19T08:18:09;11.02;;;8.88;;
82646;SDS011;72325;41.910;22.404;2023-09-19T08:20:38;12.10;;;9.50;;
82646;SDS011;72325;41.910;22.404;2023-09-19T08:23:07;12.52;;;9.68;;
82646;SDS011;72325;41.910;22.404;2023-09-19T08:25:33;12.57;;;9.02;;
82646;SDS011;72325;41.910;22.404;2023-09-19T08:28:00;10.10;;;8.90;;
82646;SDS011;72325;41.910;22.404;2023-09-19T08:30:33;13.10;;;8.75;;
82646;SDS011;72325;41.910;22.404;2023-09-19T08:33:00;10.80;;;9.02;;
82646;SDS011;72325;41.910;22.404;2023-09-19T08:35:26;14.85;;;9.25;;
82646;SDS011;72325;41.910;22.404;2023-09-19T08:37:53;12.38;;;9.32;;
82646;SDS011;72325;41.910;22.404;2023-09-19T08:40:20;11.88;;;9.35;;
82646;SDS011;72325;41.910;22.404;2023-09-19T08:42:50;11.15;;;9.23;;
82646;SDS011;72325;41.910;22.404;2023-09-19T08:45:17;9.70;;;8.70;;
82646;SDS011;72325;41.910;22.404;2023-09-19T08:47:46;11.95;;;8.93;;
82646;SDS011;72325;41.910;22.404;2023-09-19T08:50:23;10.40;;;8.73;;
82646;SDS011;72325;41.910;22.404;2023-09-19T08:52:51;12.43;;;9.00;;
82646;SDS011;72325;41.910;22.404;2023-09-19T08:55:23;9.90;;;8.75;;
82646;SDS011;72325;41.910;22.404;2023-09-19T08:57:52;10.55;;;9.40;;
82646;SDS011;72325;41.910;22.404;2023-09-19T09:00:23;11.38;;;8.68;;
82646;SDS011;72325;41.910;22.404;2023-09-19T09:02:51;9.68;;;8.68;;
82646;SDS011;72325;41.910;22.404;2023-09-19T09:07:48;9.98;;;8.48;;
82646;SDS011;72325;41.910;22.404;2023-09-19T09:10:20;13.20;;;8.75;;
82646;SDS011;72325;41.910;22.404;2023-09-19T09:12:57;11.23;;;8.43;;
82646;SDS011;72325;41.910;22.404;2023-09-19T09:15:24;13.38;;;8.20;;
82646;SDS011;72325;41.910;22.404;2023-09-19T09:17:51;9.23;;;8.27;;
82646;SDS011;72325;41.910;22.404;2023-09-19T09:20:21;9.82;;;8.43;;
82646;SDS011;72325;41.910;22.404;2023-09-19T09:22:53;10.25;;;8.07;;
82646;SDS011;72325;41.910;22.404;2023-09-19T09:25:20;9.20;;;8.30;;
82646;SDS011;72325;41.910;22.404;2023-09-19T09:27:58;9.65;;;8.20;;
82646;SDS011;72325;41.910;22.404;2023-09-19T09:30:34;11.38;;;8.60;;
82646;SDS011;72325;41.910;22.404;2023-09-19T09:33:11;12.68;;;8.70;;
82646;SDS011;72325;41.910;22.404;2023-09-19T09:35:47;8.73;;;7.20;;
82646;SDS011;72325;41.910;22.404;2023-09-19T09:38:28;9.27;;;8.27;;
82646;SDS011;72325;41.910;22.404;2023-09-19T09:40:58;10.18;;;7.88;;
82646;SDS011;72325;41.910;22.404;2023-09-19T09:48:45;9.23;;;7.40;;
82646;SDS011;72325;41.910;22.404;2023-09-19T09:56:12;8.32;;;7.25;;
82646;SDS011;72325;41.910;22.404;2023-09-19T09:58:51;8.95;;;7.75;;
82646;SDS011;72325;41.910;22.404;2023-09-19T10:01:20;8.10;;;7.25;;
82646;SDS011;72325;41.910;22.404;2023-09-19T10:03:52;7.90;;;7.10;;
82646;SDS011;72325;41.910;22.404;2023-09-19T10:06:22;9.75;;;7.30;;
82646;SDS011;72325;41.910;22.404;2023-09-19T10:11:57;8.57;;;7.30;;
82646;SDS011;72325;41.910;22.404;2023-09-19T10:14:29;8.35;;;7.45;;
82646;SDS011;72325;41.910;22.404;2023-09-19T10:16:59;8.85;;;7.95;;
82646;SDS011;72325;41.910;22.404;2023-09-19T10:19:30;8.77;;;7.72;;
82646;SDS011;72325;41.910;22.404;2023-09-19T10:21:59;9.52;;;8.43;;
82646;SDS011;72325;41.910;22.404;2023-09-19T10:24:29;8.50;;;7.57;;
82646;SDS011;72325;41.910;22.404;2023-09-19T10:26:56;10.85;;;7.65;;
82646;SDS011;72325;41.910;22.404;2023-09-19T10:29:22;9.60;;;8.30;;
82646;SDS011;72325;41.910;22.404;2023-09-19T10:34:18;9.15;;;7.38;;
82646;SDS011;72325;41.910;22.404;2023-09-19T10:36:45;10.25;;;7.30;;
82646;SDS011;72325;41.910;22.404;2023-09-19T10:39:16;11.25;;;6.97;;
82646;SDS011;72325;41.910;22.404;2023-09-19T10:41:52;8.65;;;6.97;;
82646;SDS011;72325;41.910;22.404;2023-09-19T10:44:25;8.02;;;7.05;;
82646;SDS011;72325;41.910;22.404;2023-09-19T10:46:52;9.80;;;7.85;;
82646;SDS011;72325;41.910;22.404;2023-09-19T10:49:21;8.00;;;6.80;;
82646;SDS011;72325;41.910;22.404;2023-09-19T10:51:56;7.72;;;6.90;;
82646;SDS011;72325;41.910;22.404;2023-09-19T10:54:31;9.55;;;7.07;;
82646;SDS011;72325;41.910;22.404;2023-09-19T10:57:02;10.57;;;7.07;;
82646;SDS011;72325;41.910;22.404;2023-09-19T10:59:33;8.10;;;7.30;;
82646;SDS011;72325;41.910;22.404;2023-09-19T11:02:00;8.73;;;6.82;;
82646;SDS011;72325;41.910;22.404;2023-09-19T11:04:42;8.20;;;6.72;;
82646;SDS011;72325;41.910;22.404;2023-09-19T11:07:11;8.63;;;6.57;;
82646;SDS011;72325;41.910;22.404;2023-09-19T11:09:49;8.27;;;6.57;;
82646;SDS011;72325;41.910;22.404;2023-09-19T11:16:02;8.95;;;6.93;;
82646;SDS011;72325;41.910;22.404;2023-09-19T11:26:50;13.60;;;7.78;;
82646;SDS011;72325;41.910;22.404;2023-09-19T11:29:35;10.23;;;7.97;;
82646;SDS011;72325;41.910;22.404;2023-09-19T11:32:02;7.97;;;7.20;;
82646;SDS011;72325;41.910;22.404;2023-09-19T11:42:42;7.95;;;6.90;;
82646;SDS011;72325;41.910;22.404;2023-09-19T11:48:04;8.23;;;6.70;;
82646;SDS011;72325;41.910;22.404;2023-09-19T11:50:31;8.30;;;7.43;;
82646;SDS011;72325;41.910;22.404;2023-09-19T11:53:01;9.63;;;6.97;;
82646;SDS011;72325;41.910;22.404;2023-09-19T11:55:31;11.88;;;7.40;;
82646;SDS011;72325;41.910;22.404;2023-09-19T11:57:57;10.38;;;8.63;;
82646;SDS011;72325;41.910;22.404;2023-09-19T12:00:24;9.13;;;6.70;;
82646;SDS011;72325;41.910;22.404;2023-09-19T12:02:52;9.20;;;7.07;;
82646;SDS011;72325;41.910;22.404;2023-09-19T12:05:29;8.07;;;6.10;;
82646;SDS011;72325;41.910;22.404;2023-09-19T12:07:56;10.73;;;7.05;;
82646;SDS011;72325;41.910;22.404;2023-09-19T12:10:22;12.30;;;7.45;;
82646;SDS011;72325;41.910;22.404;2023-09-19T12:12:49;7.55;;;6.78;;
82646;SDS011;72325;41.910;22.404;2023-09-19T12:15:22;10.07;;;7.28;;
82646;SDS011;72325;41.910;22.404;2023-09-19T12:17:53;11.10;;;7.22;;
82646;SDS011;72325;41.910;22.404;2023-09-19T12:20:20;8.15;;;6.80;;
82646;SDS011;72325;41.910;22.404;2023-09-19T12:22:46;8.73;;;7.28;;
82646;SDS011;72325;41.910;22.404;2023-09-19T12:25:17;9.75;;;7.50;;
82646;SDS011;72325;41.910;22.404;2023-09-19T12:27:45;8.43;;;7.43;;
82646;SDS011;72325;41.910;22.404;2023-09-19T12:30:12;12.50;;;7.07;;
82646;SDS011;72325;41.910;22.404;2023-09-19T12:32:44;9.02;;;7.22;;
82646;SDS011;72325;41.910;22.404;2023-09-19T12:35:10;11.23;;;7.95;;
82646;SDS011;72325;41.910;22.404;2023-09-19T12:37:53;8.50;;;7.40;;
82646;SDS011;72325;41.910;22.404;2023-09-19T12:40:21;9.88;;;8.00;;
82646;SDS011;72325;41.910;22.404;2023-09-19T12:42:48;8.57;;;7.55;;
82646;SDS011;72325;41.910;22.404;2023-09-19T12:45:15;9.43;;;6.93;;
82646;SDS011;72325;41.910;22.404;2023-09-19T12:50:27;10.13;;;7.97;;
82646;SDS011;72325;41.910;22.404;2023-09-19T12:52:55;8.70;;;7.28;;
82646;SDS011;72325;41.910;22.404;2023-09-19T12:55:25;8.15;;;7.03;;
82646;SDS011;72325;41.910;22.404;2023-09-19T13:00:42;10.18;;;7.43;;
82646;SDS011;72325;41.910;22.404;2023-09-19T13:05:49;13.32;;;6.97;;
82646;SDS011;72325;41.910;22.404;2023-09-19T13:08:19;8.90;;;7.25;;
82646;SDS011;72325;41.910;22.404;2023-09-19T13:13:27;8.10;;;7.20;;
82646;SDS011;72325;41.910;22.404;2023-09-19T13:15:54;10.88;;;7.10;;
82646;SDS011;72325;41.910;22.404;2023-09-19T13:18:23;8.30;;;7.18;;
82646;SDS011;72325;41.910;22.404;2023-09-19T13:21:06;8.68;;;7.35;;
82646;SDS011;72325;41.910;22.404;2023-09-19T13:23:37;12.13;;;7.40;;
82646;SDS011;72325;41.910;22.404;2023-09-19T13:26:03;10.75;;;7.30;;
82646;SDS011;72325;41.910;22.404;2023-09-19T13:28:33;8.15;;;7.32;;
82646;SDS011;72325;41.910;22.404;2023-09-19T13:31:00;10.55;;;7.50;;
82646;SDS011;72325;41.910;22.404;2023-09-19T13:33:26;8.05;;;7.25;;
82646;SDS011;72325;41.910;22.404;2023-09-19T13:35:53;8.27;;;7.20;;
82646;SDS011;72325;41.910;22.404;2023-09-19T13:38:20;7.82;;;6.90;;
82646;SDS011;72325;41.910;22.404;2023-09-19T13:40:47;9.70;;;7.30;;
82646;SDS011;72325;41.910;22.404;2023-09-19T13:43:14;8.40;;;7.40;;
82646;SDS011;72325;41.910;22.404;2023-09-19T13:45:41;9.98;;;7.18;;
82646;SDS011;72325;41.910;22.404;2023-09-19T13:48:07;8.60;;;7.40;;
82646;SDS011;72325;41.910;22.404;2023-09-19T13:50:34;7.90;;;7.10;;
82646;SDS011;72325;41.910;22.404;2023-09-19T13:53:01;9.52;;;6.80;;
82646;SDS011;72325;41.910;22.404;2023-09-19T13:55:28;8.63;;;7.13;;
82646;SDS011;72325;41.910;22.404;2023-09-19T13:57:54;11.23;;;7.72;;
82646;SDS011;72325;41.910;22.404;2023-09-19T14:00:21;9.05;;;7.72;;
82646;SDS011;72325;41.910;22.404;2023-09-19T14:02:48;7.93;;;7.13;;
82646;SDS011;72325;41.910;22.404;2023-09-19T14:05:16;8.55;;;7.10;;
82646;SDS011;72325;41.910;22.404;2023-09-19T14:07:42;8.73;;;6.88;;
82646;SDS011;72325;41.910;22.404;2023-09-19T14:10:09;10.93;;;7.38;;
82646;SDS011;72325;41.910;22.404;2023-09-19T14:12:36;8.45;;;7.07;;
82646;SDS011;72325;41.910;22.404;2023-09-19T14:15:03;8.30;;;6.75;;
82646;SDS011;72325;41.910;22.404;2023-09-19T14:17:29;8.32;;;7.07;;
82646;SDS011;72325;41.910;22.404;2023-09-19T14:19:55;8.75;;;7.00;;
82646;SDS011;72325;41.910;22.404;2023-09-19T14:22:22;8.57;;;6.95;;
82646;SDS011;72325;41.910;22.404;2023-09-19T14:24:48;8.57;;;7.38;;
82646;SDS011;72325;41.910;22.404;2023-09-19T14:27:14;8.50;;;7.68;;
82646;SDS011;72325;41.910;22.404;2023-09-19T14:29:40;9.60;;;7.22;;
82646;SDS011;72325;41.910;22.404;2023-09-19T14:32:06;8.40;;;7.43;;
82646;SDS011;72325;41.910;22.404;2023-09-19T14:34:32;10.30;;;7.45;;
82646;SDS011;72325;41.910;22.404;2023-09-19T14:36:59;10.85;;;7.97;;
82646;SDS011;72325;41.910;22.404;2023-09-19T14:39:25;11.43;;;8.38;;
82646;SDS011;72325;41.910;22.404;2023-09-19T14:41:52;8.27;;;7.47;;
82646;SDS011;72325;41.910;22.404;2023-09-19T14:44:18;10.07;;;7.28;;
82646;SDS011;72325;41.910;22.404;2023-09-19T14:46:44;8.75;;;6.90;;
82646;SDS011;72325;41.910;22.404;2023-09-19T14:49:11;9.13;;;7.32;;
82646;SDS011;72325;41.910;22.404;2023-09-19T14:51:37;10.63;;;7.22;;
82646;SDS011;72325;41.910;22.404;2023-09-19T14:54:09;12.00;;;7.05;;
82646;SDS011;72325;41.910;22.404;2023-09-19T14:56:35;8.52;;;7.68;;
82646;SDS011;72325;41.910;22.404;2023-09-19T14:59:01;9.75;;;7.43;;
82646;SDS011;72325;41.910;22.404;2023-09-19T15:01:28;9.80;;;7.30;;
82646;SDS011;72325;41.910;22.404;2023-09-19T15:03:54;9.25;;;7.68;;
82646;SDS011;72325;41.910;22.404;2023-09-19T15:06:21;9.93;;;7.82;;
82646;SDS011;72325;41.910;22.404;2023-09-19T15:08:47;9.38;;;7.82;;
82646;SDS011;72325;41.910;22.404;2023-09-19T15:13:45;8.77;;;7.88;;
82646;SDS011;72325;41.910;22.404;2023-09-19T15:16:11;10.93;;;7.57;;
82646;SDS011;72325;41.910;22.404;2023-09-19T15:18:39;9.65;;;8.35;;
82646;SDS011;72325;41.910;22.404;2023-09-19T15:21:07;8.23;;;7.43;;
82646;SDS011;72325;41.910;22.404;2023-09-19T15:23:34;10.18;;;7.82;;
82646;SDS011;72325;41.910;22.404;2023-09-19T15:26:02;8.95;;;7.22;;
82646;SDS011;72325;41.910;22.404;2023-09-19T15:28:28;9.77;;;7.43;;
82646;SDS011;72325;41.910;22.404;2023-09-19T15:31:05;8.55;;;7.25;;
82646;SDS011;72325;41.910;22.404;2023-09-19T15:33:31;10.52;;;7.68;;
82646;SDS011;72325;41.910;22.404;2023-09-19T15:36:01;9.48;;;7.65;;
82646;SDS011;72325;41.910;22.404;2023-09-19T15:38:28;8.55;;;7.55;;